Time;durP1;ratioP1;P1;durP2;ratioP2;P2;SDS_P1;SDS_P2;PMS_P1;PMS_P2;Temp;Humidity;BMP_temperature;BMP_pressure;BME280_temperature;BME280_humidity;BME280_pressure;Samples;Min_cycle;Max_cycle;Signal;HPM_P1;HPM_P2
2021/12/03 00:01:12;;;;;;;5.93;2.50;;;;;;;-149.78;100.00;50522.28;5032582;28;20104;-66
2021/12/03 00:03:38;;;;;;;6.85;2.78;;;;;;;-149.78;100.00;50530.13;5031206;28;20030;-66
2021/12/03 00:06:05;;;;;;;9.30;3.05;;;;;;;-149.78;100.00;50537.94;5015667;28;20405;-66
2021/12/03 00:08:31;;;;;;;7.35;2.97;;;;;;;-149.78;100.00;50549.69;5026229;28;20481;-66
2021/12/03 00:11:00;;;;;;;9.45;2.97;;;;;;;-149.78;100.00;50510.56;5024834;28;20133;-66
2021/12/03 00:13:29;;;;;;;8.65;3.40;;;;;;;-149.78;100.00;50565.31;5035204;28;20034;-66
2021/12/03 00:15:56;;;;;;;8.43;4.15;;;;;;;-149.78;100.00;50514.47;5035760;28;20388;-66
2021/12/03 00:18:22;;;;;;;12.10;4.75;;;;;;;-149.78;100.00;50539.91;5034880;28;20060;-66
2021/12/03 00:20:49;;;;;;;8.95;4.50;;;;;;;-149.78;100.00;50537.94;5035942;28;20765;-66
2021/12/03 00:23:15;;;;;;;10.95;4.88;;;;;;;-149.78;100.00;50545.75;5036396;28;20029;-66
2021/12/03 00:25:41;;;;;;;9.95;4.72;;;;;;;-149.78;100.00;50526.22;5034481;28;20037;-66
2021/12/03 00:28:08;;;;;;;11.68;5.63;;;;;;;-149.78;100.00;50537.94;5025003;28;20042;-66
2021/12/03 00:30:34;;;;;;;10.25;5.03;;;;;;;-149.78;100.00;50541.84;5031758;28;20107;-67
2021/12/03 00:33:01;;;;;;;9.77;4.97;;;;;;;-149.78;100.00;50565.31;5032264;28;20037;-67
2021/12/03 00:35:27;;;;;;;8.05;4.50;;;;;;;-149.78;100.00;50573.16;5035242;28;20442;-66
2021/12/03 00:37:52;;;;;;;7.43;3.60;;;;;;;-149.78;100.00;50543.81;5032949;28;20045;-67
2021/12/03 00:40:25;;;;;;;8.88;4.18;;;;;;;-149.78;100.00;50549.69;5032882;28;20049;-65
2021/12/03 00:42:50;;;;;;;7.45;3.65;;;;;;;-149.78;100.00;50506.66;5028821;28;20033;-66
2021/12/03 00:45:16;;;;;;;10.80;3.75;;;;;;;-149.78;100.00;50553.59;5033071;28;20465;-66
2021/12/03 00:47:43;;;;;;;5.97;3.05;;;;;;;-149.78;100.00;50545.75;5033287;28;20037;-66
2021/12/03 00:50:12;;;;;;;6.13;3.05;;;;;;;-149.78;100.00;50553.59;5035439;28;20052;-66
2021/12/03 00:52:38;;;;;;;6.25;3.28;;;;;;;-149.78;100.00;50526.22;5033336;28;20132;-66
2021/12/03 00:55:06;;;;;;;6.47;3.08;;;;;;;-149.78;100.00;50522.28;5028072;28;20125;-66
2021/12/03 00:57:32;;;;;;;7.65;3.17;;;;;;;-149.78;100.00;50541.84;5031020;28;20112;-66
2021/12/03 00:59:58;;;;;;;5.35;2.53;;;;;;;-149.78;100.00;50522.28;5034092;28;20048;-66
2021/12/03 01:02:24;;;;;;;5.60;2.90;;;;;;;-149.78;100.00;50553.59;5035738;28;20033;-66
2021/12/03 01:04:49;;;;;;;4.90;3.15;;;;;;;-149.78;100.00;50553.59;5033590;28;20416;-66
2021/12/03 01:07:15;;;;;;;5.40;3.17;;;;;;;-149.78;100.00;50532.06;5017786;28;20096;-67
2021/12/03 01:09:42;;;;;;;5.85;3.00;;;;;;;-149.78;100.00;50561.41;5034765;28;20037;-66
2021/12/03 01:12:08;;;;;;;5.20;3.25;;;;;;;-149.78;100.00;50537.94;5035314;28;20039;-66
2021/12/03 01:14:36;;;;;;;8.02;3.78;;;;;;;-149.78;100.00;50549.69;5030027;28;20040;-67
2021/12/03 01:17:03;;;;;;;6.97;4.03;;;;;;;-149.78;100.00;50541.84;5032681;28;20047;-66
2021/12/03 01:19:29;;;;;;;8.50;4.35;;;;;;;-149.78;100.00;50553.59;5034439;28;20033;-66
2021/12/03 01:21:55;;;;;;;7.53;4.55;;;;;;;-149.78;100.00;50565.31;5032266;28;20060;-66
2021/12/03 01:24:21;;;;;;;10.93;4.80;;;;;;;-149.78;100.00;50575.09;5033893;28;20038;-66
2021/12/03 01:26:50;;;;;;;9.20;5.10;;;;;;;-149.78;100.00;50549.69;5032233;28;20117;-66
2021/12/03 01:29:15;;;;;;;9.00;5.20;;;;;;;-149.78;100.00;50534.03;5033474;28;20065;-66
2021/12/03 01:31:41;;;;;;;10.70;5.70;;;;;;;-149.78;100.00;50545.75;5025912;28;20207;-66
2021/12/03 01:34:07;;;;;;;10.80;5.50;;;;;;;-149.78;100.00;50561.41;5030071;28;20038;-66
2021/12/03 01:36:32;;;;;;;11.20;5.85;;;;;;;-149.78;100.00;50537.94;5028402;28;20087;-66
2021/12/03 01:38:58;;;;;;;10.82;5.78;;;;;;;-149.78;100.00;50537.94;5033016;28;20033;-66
2021/12/03 01:41:24;;;;;;;13.13;6.28;;;;;;;-149.78;100.00;50534.03;5027205;28;20033;-66
2021/12/03 01:43:51;;;;;;;8.88;4.85;;;;;;;-149.78;100.00;50553.59;5033134;28;20060;-67
2021/12/03 01:46:19;;;;;;;8.88;4.70;;;;;;;-149.78;100.00;50549.69;5025197;28;20033;-67
2021/12/03 01:48:45;;;;;;;7.95;4.10;;;;;;;-149.78;100.00;50545.75;5031636;28;20029;-67
2021/12/03 01:51:10;;;;;;;7.63;3.80;;;;;;;-149.78;100.00;50577.06;5032930;28;20113;-67
2021/12/03 01:53:39;;;;;;;6.30;3.67;;;;;;;-149.78;100.00;50537.94;5023504;28;20455;-67
2021/12/03 01:56:10;;;;;;;6.35;3.80;;;;;;;-149.78;100.00;50530.13;5033708;28;20049;-67
2021/12/03 01:58:36;;;;;;;6.30;3.38;;;;;;;-149.78;100.00;50537.94;5029260;28;20112;-66
2021/12/03 02:01:06;;;;;;;4.90;3.00;;;;;;;-149.78;100.00;50502.75;5028545;28;20041;-67
2021/12/03 02:03:35;;;;;;;6.47;3.38;;;;;;;-149.78;100.00;50532.06;5011984;28;20472;-67
2021/12/03 02:06:02;;;;;;;5.65;3.03;;;;;;;-149.78;100.00;50518.38;5032548;28;20049;-67
2021/12/03 02:08:28;;;;;;;5.47;3.15;;;;;;;-149.78;100.00;50514.47;5023901;28;20120;-67
2021/12/03 02:10:54;;;;;;;6.22;3.10;;;;;;;-149.78;100.00;50506.66;5024640;28;20045;-67
2021/12/03 02:13:20;;;;;;;4.88;2.92;;;;;;;-149.78;100.00;50545.75;5032720;28;20029;-67
2021/12/03 02:15:47;;;;;;;6.25;3.13;;;;;;;-149.78;100.00;50549.69;5033919;28;20060;-66
2021/12/03 02:18:15;;;;;;;4.30;2.83;;;;;;;-149.78;100.00;50551.63;5031697;28;20037;-68
2021/12/03 02:20:43;;;;;;;3.90;2.63;;;;;;;-149.78;100.00;50541.84;5031920;28;20099;-67
2021/12/03 02:23:09;;;;;;;4.97;2.60;;;;;;;-149.78;100.00;50534.03;5021906;28;20033;-66
2021/12/03 02:25:35;;;;;;;4.15;2.50;;;;;;;-149.78;100.00;50514.47;5032721;28;20022;-66
2021/12/03 02:28:01;;;;;;;3.63;2.40;;;;;;;-149.78;100.00;50549.69;5029559;28;20442;-67
2021/12/03 02:30:26;;;;;;;3.95;2.50;;;;;;;-149.78;100.00;50549.69;5031417;28;20033;-66
2021/12/03 02:32:53;;;;;;;3.60;2.10;;;;;;;-149.78;100.00;50524.25;5029681;28;20108;-66
2021/12/03 02:35:21;;;;;;;3.30;1.88;;;;;;;-149.78;100.00;50539.91;5027939;28;20034;-66
2021/12/03 02:37:48;;;;;;;3.38;2.17;;;;;;;-149.78;100.00;50514.47;5032714;28;20167;-66
2021/12/03 02:40:14;;;;;;;3.63;1.80;;;;;;;-149.78;100.00;50565.31;5032271;28;20025;-66
2021/12/03 02:42:41;;;;;;;3.42;1.73;;;;;;;-149.78;100.00;50541.84;5026833;28;20037;-66
2021/12/03 02:45:07;;;;;;;3.75;1.80;;;;;;;-149.78;100.00;50563.38;5032450;28;20056;-66
2021/12/03 02:47:33;;;;;;;4.30;1.92;;;;;;;-149.78;100.00;50551.63;5032782;28;20044;-66
2021/12/03 02:50:00;;;;;;;1.95;1.60;;;;;;;-149.78;100.00;50549.69;5030309;28;20499;-66
2021/12/03 02:52:25;;;;;;;2.83;1.98;;;;;;;-149.78;100.00;50561.41;5027027;28;20030;-66
2021/12/03 02:54:51;;;;;;;2.88;1.77;;;;;;;-149.78;100.00;50539.91;5030771;28;20536;-66
2021/12/03 02:57:17;;;;;;;3.47;1.90;;;;;;;-149.78;100.00;50545.75;5029012;28;20041;-66
2021/12/03 02:59:43;;;;;;;3.65;2.08;;;;;;;-149.78;100.00;50522.28;5032175;28;20090;-67
2021/12/03 03:02:08;;;;;;;3.90;2.20;;;;;;;-149.78;100.00;50553.59;5030623;28;20026;-66
2021/12/03 03:04:34;;;;;;;2.53;1.80;;;;;;;-149.78;100.00;50561.41;5031826;28;20491;-66
2021/12/03 03:07:00;;;;;;;4.20;2.00;;;;;;;-149.78;100.00;50565.31;5031526;28;20572;-66
2021/12/03 03:09:26;;;;;;;3.20;2.22;;;;;;;-149.78;100.00;50522.28;5033289;28;20040;-66
2021/12/03 03:11:52;;;;;;;3.60;2.00;;;;;;;-149.78;100.00;50541.84;5032644;28;20033;-66
2021/12/03 03:14:18;;;;;;;3.92;2.10;;;;;;;-149.78;100.00;50514.47;5031575;28;20182;-67
2021/12/03 03:16:44;;;;;;;2.80;1.92;;;;;;;-149.78;100.00;50549.69;5033300;28;20091;-67
2021/12/03 03:19:16;;;;;;;4.90;1.92;;;;;;;-149.78;100.00;50565.31;5027861;28;20393;-67
2021/12/03 03:21:42;;;;;;;3.33;2.03;;;;;;;-149.78;100.00;50541.84;5023334;28;20057;-67
2021/12/03 03:24:09;;;;;;;3.13;1.85;;;;;;;-149.78;100.00;50537.94;5024376;28;20416;-67
2021/12/03 03:26:36;;;;;;;2.85;1.90;;;;;;;-149.78;100.00;50530.13;5040272;28;20060;-67
2021/12/03 03:29:04;;;;;;;3.30;1.67;;;;;;;-149.78;100.00;50526.22;5024378;28;20029;-67
2021/12/03 03:31:31;;;;;;;2.72;1.80;;;;;;;-149.78;100.00;50537.94;5032497;28;20037;-67
2021/12/03 03:33:57;;;;;;;4.00;1.90;;;;;;;-149.78;100.00;50584.88;5029387;28;20110;-67
2021/12/03 03:36:22;;;;;;;4.05;2.00;;;;;;;-149.78;100.00;50545.75;5030100;28;20037;-67
2021/12/03 03:38:48;;;;;;;2.85;1.80;;;;;;;-149.78;100.00;50545.75;5030177;28;20033;-67
2021/12/03 03:41:14;;;;;;;4.38;2.20;;;;;;;-149.78;100.00;50534.03;5026955;28;20029;-67
2021/12/03 03:43:41;;;;;;;4.95;2.35;;;;;;;-149.78;100.00;50545.75;5030152;28;20033;-67
2021/12/03 03:46:06;;;;;;;3.38;2.15;;;;;;;-149.78;100.00;50535.97;5030078;28;20068;-67
2021/12/03 03:48:32;;;;;;;3.85;2.55;;;;;;;-149.78;100.00;50557.50;5030496;28;20069;-67
2021/12/03 03:50:58;;;;;;;4.50;2.67;;;;;;;-149.78;100.00;50553.59;5024308;28;20088;-67
2021/12/03 03:53:24;;;;;;;2.85;1.98;;;;;;;-149.78;100.00;50551.63;5030686;28;20037;-67
2021/12/03 03:55:49;;;;;;;3.15;2.10;;;;;;;-149.78;100.00;50553.59;5029549;28;20419;-67
2021/12/03 03:58:15;;;;;;;3.65;2.20;;;;;;;-149.78;100.00;50561.41;5028767;28;20037;-67
2021/12/03 04:00:44;;;;;;;3.90;2.28;;;;;;;-149.78;100.00;50534.03;5031540;28;20033;-67
2021/12/03 04:03:11;;;;;;;3.58;2.35;;;;;;;-149.78;100.00;50565.31;5031806;28;20029;-67
2021/12/03 04:05:37;;;;;;;3.33;2.15;;;;;;;-149.78;100.00;50514.47;5031922;28;20028;-67
2021/12/03 04:08:03;;;;;;;4.05;2.20;;;;;;;-149.78;100.00;50549.69;5028086;28;20395;-67
2021/12/03 04:10:31;;;;;;;3.90;2.38;;;;;;;-149.78;100.00;50534.03;5027699;28;20033;-66
2021/12/03 04:12:58;;;;;;;3.60;2.20;;;;;;;-149.78;100.00;50553.59;5030364;28;20033;-67
2021/12/03 04:15:24;;;;;;;3.95;2.40;;;;;;;-149.78;100.00;50580.97;5032121;28;20377;-67
2021/12/03 04:17:50;;;;;;;3.08;2.10;;;;;;;-149.78;100.00;50502.75;5030539;28;20144;-67
2021/12/03 04:20:18;;;;;;;4.00;2.35;;;;;;;-149.78;100.00;50528.16;5030538;28;20484;-67
2021/12/03 04:22:44;;;;;;;4.70;2.70;;;;;;;-149.78;100.00;50539.91;5030787;28;20092;-67
2021/12/03 04:25:16;;;;;;;4.10;2.45;;;;;;;-149.78;100.00;50543.81;5028783;28;20025;-67
2021/12/03 04:27:43;;;;;;;5.20;2.92;;;;;;;-149.78;100.00;50557.50;5031784;28;20022;-67
2021/12/03 04:30:13;;;;;;;5.13;2.95;;;;;;;-149.78;100.00;50586.84;5028239;28;20125;-67
2021/12/03 04:32:39;;;;;;;4.55;2.95;;;;;;;-149.78;100.00;50530.13;5027727;28;20026;-67
2021/12/03 04:35:05;;;;;;;5.22;2.97;;;;;;;-149.78;100.00;50549.69;5029830;28;20080;-67
2021/12/03 04:37:31;;;;;;;4.95;2.65;;;;;;;-149.78;100.00;50534.03;5031517;28;20033;-67
2021/12/03 04:39:57;;;;;;;6.05;3.30;;;;;;;-149.78;100.00;50522.28;5031644;28;20041;-67
2021/12/03 04:42:23;;;;;;;4.95;2.90;;;;;;;-149.78;100.00;50541.84;4998203;28;20034;-67
2021/12/03 04:44:49;;;;;;;4.57;2.70;;;;;;;-149.78;100.00;50530.13;5030990;28;20032;-67
2021/12/03 04:47:15;;;;;;;4.38;2.45;;;;;;;-149.78;100.00;50541.84;5029808;28;20503;-67
2021/12/03 04:49:41;;;;;;;5.03;2.85;;;;;;;-149.78;100.00;50541.84;5031690;28;20044;-67
2021/12/03 04:52:07;;;;;;;5.22;2.60;;;;;;;-149.78;100.00;50553.59;5031447;28;20034;-67
2021/12/03 04:54:33;;;;;;;5.47;2.95;;;;;;;-149.78;100.00;50518.38;5031290;28;20049;-67
2021/12/03 04:56:59;;;;;;;4.85;2.80;;;;;;;-149.78;100.00;50549.69;5031458;28;20025;-67
2021/12/03 04:59:24;;;;;;;5.80;2.92;;;;;;;-149.78;100.00;50565.31;5034449;28;20053;-67
2021/12/03 05:01:54;;;;;;;6.05;3.50;;;;;;;-149.78;100.00;50573.16;5035612;28;20049;-67
2021/12/03 05:04:20;;;;;;;6.57;3.30;;;;;;;-149.78;100.00;50510.56;5033302;28;20033;-67
2021/12/03 05:06:55;;;;;;;6.40;3.22;;;;;;;-149.78;100.00;50530.13;5034678;28;20045;-67
2021/12/03 05:09:22;;;;;;;6.30;3.03;;;;;;;-149.78;100.00;50545.75;5034891;28;20033;-67
2021/12/03 05:11:48;;;;;;;8.65;3.85;;;;;;;-149.78;100.00;50577.06;5027888;28;20041;-67
2021/12/03 05:14:14;;;;;;;7.82;3.83;;;;;;;-149.78;100.00;50530.13;5033565;28;20051;-67
2021/12/03 05:16:40;;;;;;;7.82;4.20;;;;;;;-149.78;100.00;50561.41;5033485;28;20083;-67
2021/12/03 05:19:05;;;;;;;8.27;3.78;;;;;;;-149.78;100.00;50526.22;5035168;28;20033;-67
2021/12/03 05:21:31;;;;;;;7.43;3.78;;;;;;;-149.78;100.00;50534.03;5032640;28;20029;-67
2021/12/03 05:23:56;;;;;;;6.00;3.08;;;;;;;-149.78;100.00;50537.94;5035168;28;20040;-67
2021/12/03 05:26:22;;;;;;;5.25;2.72;;;;;;;-149.78;100.00;50530.13;5035347;28;20038;-67
2021/12/03 05:28:49;;;;;;;5.00;2.75;;;;;;;-149.78;100.00;50534.03;5033455;28;20131;-67
2021/12/03 05:31:15;;;;;;;4.88;2.60;;;;;;;-149.78;100.00;50530.13;5034365;28;20040;-67
2021/12/03 05:33:40;;;;;;;5.85;3.20;;;;;;;-149.78;100.00;50543.81;5033006;28;20042;-67
2021/12/03 05:36:06;;;;;;;4.43;2.58;;;;;;;-149.78;100.00;50530.13;5034387;28;20025;-67
2021/12/03 05:38:32;;;;;;;5.78;2.78;;;;;;;-149.78;100.00;50541.84;5033547;28;20059;-67
2021/12/03 05:40:57;;;;;;;4.47;2.55;;;;;;;-149.78;100.00;50532.06;5034071;28;20087;-67
2021/12/03 05:43:23;;;;;;;4.05;2.28;;;;;;;-149.78;100.00;50524.25;5029980;28;20072;-67
2021/12/03 05:45:49;;;;;;;5.70;2.83;;;;;;;-149.78;100.00;50522.28;5034693;28;20022;-67
2021/12/03 05:48:18;;;;;;;5.25;2.55;;;;;;;-149.78;100.00;50530.13;5031681;28;20433;-67
2021/12/03 05:50:45;;;;;;;9.35;3.78;;;;;;;-149.78;100.00;50557.50;5033667;28;20385;-67
2021/12/03 05:53:10;;;;;;;5.18;2.72;;;;;;;-149.78;100.00;50545.75;5034061;28;20060;-67
2021/12/03 05:55:36;;;;;;;5.35;2.83;;;;;;;-149.78;100.00;50557.50;5034378;28;20468;-67
2021/12/03 05:58:02;;;;;;;5.15;2.40;;;;;;;-149.78;100.00;50553.59;5034703;28;20380;-67
2021/12/03 06:00:33;;;;;;;6.55;2.35;;;;;;;-149.78;100.00;50537.94;5031874;28;20034;-67
2021/12/03 06:02:59;;;;;;;4.85;2.97;;;;;;;-149.78;100.00;50530.13;5034068;28;20099;-67
2021/12/03 06:05:28;;;;;;;4.55;2.67;;;;;;;-149.78;100.00;50553.59;5033437;28;20061;-67
2021/12/03 06:07:54;;;;;;;6.03;2.70;;;;;;;-149.78;100.00;50534.03;5034509;28;20033;-67
2021/12/03 06:10:20;;;;;;;4.57;2.38;;;;;;;-149.78;100.00;50530.13;5033988;28;20040;-67
2021/12/03 06:12:46;;;;;;;6.85;2.83;;;;;;;-149.78;100.00;50545.75;5023894;28;20037;-67
2021/12/03 06:15:14;;;;;;;4.78;2.75;;;;;;;-149.78;100.00;50543.81;5033780;28;20037;-67
2021/12/03 06:17:40;;;;;;;8.73;2.95;;;;;;;-149.78;100.00;50510.56;5028145;28;20472;-68
2021/12/03 06:20:06;;;;;;;4.70;2.72;;;;;;;-149.78;100.00;50557.50;5033202;28;20111;-67
2021/12/03 06:22:32;;;;;;;5.07;2.53;;;;;;;-149.78;100.00;50541.84;5033403;28;20030;-67
2021/12/03 06:24:57;;;;;;;4.70;2.47;;;;;;;-149.78;100.00;50565.31;5033606;28;20036;-68
2021/12/03 06:27:25;;;;;;;5.80;2.75;;;;;;;-149.78;100.00;50530.13;5032105;28;20068;-67
2021/12/03 06:29:53;;;;;;;6.28;3.10;;;;;;;-149.78;100.00;50502.75;5028358;28;20088;-67
2021/12/03 06:32:18;;;;;;;5.32;2.75;;;;;;;-149.78;100.00;50502.75;5028543;28;20056;-67
2021/12/03 06:34:44;;;;;;;5.10;2.72;;;;;;;-149.78;100.00;50510.56;5028716;28;20108;-67
2021/12/03 06:37:10;;;;;;;6.45;3.03;;;;;;;-149.78;100.00;50514.47;5033286;28;20033;-67
2021/12/03 06:39:36;;;;;;;7.35;3.15;;;;;;;-149.78;100.00;50510.56;5032481;28;20033;-67
2021/12/03 06:42:02;;;;;;;5.28;3.03;;;;;;;-149.78;100.00;50504.69;5032650;28;20366;-67
2021/12/03 06:44:28;;;;;;;7.45;3.42;;;;;;;-149.78;100.00;50561.41;5031104;28;20030;-67
2021/12/03 06:46:55;;;;;;;7.22;3.40;;;;;;;-149.78;100.00;50494.91;5030641;28;20021;-67
2021/12/03 06:49:22;;;;;;;8.55;3.10;;;;;;;-149.78;100.00;50522.28;5030914;28;20037;-67
2021/12/03 06:51:50;;;;;;;8.15;3.60;;;;;;;-149.78;100.00;50514.47;5031401;28;20037;-67
2021/12/03 06:54:25;;;;;;;8.13;3.90;;;;;;;-149.78;100.00;50514.47;5030429;28;20048;-67
2021/12/03 06:56:52;;;;;;;7.85;3.70;;;;;;;-149.78;100.00;50549.69;5029662;28;20911;-67
2021/12/03 06:59:26;;;;;;;6.88;3.60;;;;;;;-149.78;100.00;50535.97;5029906;28;20038;-67
2021/12/03 07:01:53;;;;;;;9.50;4.00;;;;;;;-149.78;100.00;50487.09;5030250;28;20124;-67
2021/12/03 07:04:20;;;;;;;6.90;3.55;;;;;;;-149.78;100.00;50494.91;5029878;28;20060;-67
2021/12/03 07:06:46;;;;;;;7.80;3.83;;;;;;;-149.78;100.00;50528.16;5029638;28;20052;-67
2021/12/03 07:09:12;;;;;;;9.25;4.70;;;;;;;-149.78;100.00;50510.56;5030892;28;20393;-67
2021/12/03 07:11:38;;;;;;;10.88;4.28;;;;;;;-149.78;100.00;50514.47;5031086;28;20449;-67
2021/12/03 07:14:05;;;;;;;8.18;3.65;;;;;;;-149.78;100.00;50518.38;5030551;28;20025;-68
2021/12/03 07:16:32;;;;;;;8.50;4.50;;;;;;;-149.78;100.00;50518.38;5030515;28;20477;-66
2021/12/03 07:18:58;;;;;;;8.05;4.20;;;;;;;-149.78;100.00;50491.00;5030687;28;20025;-66
2021/12/03 07:21:24;;;;;;;9.40;4.53;;;;;;;-149.78;100.00;50498.81;5031148;28;20130;-67
2021/12/03 07:23:51;;;;;;;8.50;4.30;;;;;;;-149.78;100.00;50530.13;5032934;28;20072;-66
2021/12/03 07:26:18;;;;;;;9.88;4.28;;;;;;;-149.78;100.00;50502.75;5029815;28;20081;-69
2021/12/03 07:28:44;;;;;;;10.13;4.35;;;;;;;-149.78;100.00;50518.38;5029785;28;20031;-68
2021/12/03 07:31:11;;;;;;;8.57;4.40;;;;;;;-149.78;100.00;50491.00;5032335;28;20033;-67
2021/12/03 07:33:39;;;;;;;9.55;4.75;;;;;;;-149.78;100.00;50494.91;5027250;28;20039;-66
2021/12/03 07:36:05;;;;;;;11.25;5.05;;;;;;;-149.78;100.00;50494.91;5021005;28;20042;-70
2021/12/03 07:38:32;;;;;;;9.75;4.93;;;;;;;-149.78;100.00;50520.34;5029693;28;20037;-66
2021/12/03 07:40:58;;;;;;;12.73;5.28;;;;;;;-149.78;100.00;50459.72;5030929;28;20029;-66
2021/12/03 07:43:24;;;;;;;8.15;3.85;;;;;;;-149.78;100.00;50504.69;5031408;28;20098;-66
2021/12/03 07:45:50;;;;;;;12.82;5.72;;;;;;;-149.78;100.00;50532.06;5031748;28;20041;-66
2021/12/03 07:48:16;;;;;;;9.55;4.50;;;;;;;-149.78;100.00;50502.75;5030388;28;20037;-65
2021/12/03 07:50:43;;;;;;;12.15;4.82;;;;;;;-149.78;100.00;50502.75;5031417;28;20041;-66
2021/12/03 07:53:16;;;;;;;11.95;5.00;;;;;;;-149.78;100.00;50518.38;5021227;28;20045;-66
2021/12/03 07:55:44;;;;;;;10.38;4.78;;;;;;;-149.78;100.00;50510.56;5025075;28;20037;-65
2021/12/03 07:58:10;;;;;;;7.28;3.85;;;;;;;-149.78;100.00;50498.81;5012794;28;20045;-65
2021/12/03 08:00:36;;;;;;;8.52;4.45;;;;;;;-149.78;100.00;50491.00;5031515;28;20022;-65
2021/12/03 08:03:02;;;;;;;11.82;4.68;;;;;;;-149.78;100.00;50506.66;5030228;28;20064;-66
2021/12/03 08:05:28;;;;;;;14.60;4.72;;;;;;;-149.78;100.00;50494.91;5029975;28;20025;-66
2021/12/03 08:07:54;;;;;;;15.13;4.82;;;;;;;-149.78;100.00;50502.75;5028386;28;20025;-65
2021/12/03 08:10:19;;;;;;;15.00;5.75;;;;;;;-149.78;100.00;50526.22;5030770;28;20388;-65
2021/12/03 08:12:46;;;;;;;12.52;5.43;;;;;;;-149.78;100.00;50528.16;5027827;28;20037;-65
2021/12/03 08:15:14;;;;;;;11.48;5.22;;;;;;;-149.78;100.00;50545.75;5031325;28;20041;-66
2021/12/03 08:17:40;;;;;;;13.18;5.82;;;;;;;-149.78;100.00;50498.81;5030057;28;20057;-66
2021/12/03 08:20:07;;;;;;;12.38;4.75;;;;;;;-149.78;100.00;50510.56;5029252;28;20057;-65
2021/12/03 08:22:34;;;;;;;8.30;4.28;;;;;;;-149.78;100.00;50528.16;5028032;28;20041;-65
2021/12/03 08:24:59;;;;;;;9.38;3.80;;;;;;;-149.78;100.00;50528.16;5029606;28;20056;-65
2021/12/03 08:27:25;;;;;;;9.93;3.83;;;;;;;-149.78;100.00;50492.97;5030079;28;20061;-65
2021/12/03 08:29:52;;;;;;;8.10;3.40;;;;;;;-149.78;100.00;50506.66;5029912;28;20048;-65
2021/12/03 08:32:17;;;;;;;11.10;4.15;;;;;;;-149.78;100.00;50512.50;5030981;28;20457;-66
2021/12/03 08:34:45;;;;;;;8.32;4.15;;;;;;;-149.78;100.00;50432.31;5034385;28;20095;-66
2021/12/03 08:37:10;;;;;;;9.85;4.00;;;;;;;-149.78;100.00;50494.91;5031992;28;20033;-65
2021/12/03 08:39:37;;;;;;;13.15;5.43;;;;;;;-149.78;100.00;50487.09;5033767;28;20026;-65
2021/12/03 08:42:04;;;;;;;9.73;3.47;;;;;;;-149.78;100.00;50487.09;5031730;28;20095;-65
2021/12/03 08:44:31;;;;;;;13.60;4.10;;;;;;;-149.78;100.00;50483.19;5033147;28;20030;-65
2021/12/03 08:47:03;;;;;;;10.45;4.10;;;;;;;-149.78;100.00;50491.00;5033775;28;20124;-65
2021/12/03 08:49:38;;;;;;;12.68;4.03;;;;;;;-149.78;100.00;50465.56;5031979;28;20136;-65
2021/12/03 08:57:19;;;;;;;7.68;3.30;;;;;;;-149.78;100.00;50455.81;5031608;28;20038;-66
2021/12/03 08:59:45;;;;;;;10.98;3.45;;;;;;;-149.78;100.00;50479.28;5029880;28;20121;-65
2021/12/03 09:02:12;;;;;;;8.55;2.85;;;;;;;-149.78;100.00;50457.75;5033769;28;20422;-65
2021/12/03 09:04:37;;;;;;;5.53;2.65;;;;;;;-149.78;100.00;50516.44;5030984;28;20083;-66
2021/12/03 09:07:04;;;;;;;10.90;2.47;;;;;;;-149.78;100.00;50500.78;5031306;28;20444;-65
2021/12/03 09:09:31;;;;;;;9.63;2.85;;;;;;;-149.78;100.00;50412.78;5033743;28;20441;-65
2021/12/03 09:11:57;;;;;;;7.78;2.47;;;;;;;-149.78;100.00;50489.03;5033604;28;20029;-65
2021/12/03 09:19:36;;;;;;;11.35;2.30;;;;;;;-149.78;100.00;50483.19;5029397;28;20456;-65
2021/12/03 09:22:02;;;;;;;12.63;2.08;;;;;;;-149.78;100.00;50475.34;5031273;28;20124;-65
2021/12/03 09:24:32;;;;;;;12.52;2.22;;;;;;;-149.78;100.00;50494.91;5033796;28;20044;-65
2021/12/03 09:26:58;;;;;;;9.55;2.50;;;;;;;-149.78;100.00;50502.75;5021476;28;20042;-65
2021/12/03 09:29:42;;;;;;;7.75;2.17;;;;;;;-149.78;100.00;50483.19;5027817;28;20092;-65
2021/12/03 09:32:08;;;;;;;7.43;2.55;;;;;;;-149.78;100.00;50543.81;5033193;28;20048;-65
2021/12/03 09:34:35;;;;;;;5.82;1.98;;;;;;;-149.78;100.00;50494.91;5031121;28;20045;-65
2021/12/03 09:37:01;;;;;;;13.45;2.20;;;;;;;-149.78;100.00;50483.19;5033889;28;20121;-65
2021/12/03 09:39:27;;;;;;;11.75;2.17;;;;;;;-149.78;100.00;50471.44;5028158;28;20128;-65
2021/12/03 09:41:55;;;;;;;8.13;1.80;;;;;;;-149.78;100.00;50483.19;5027506;28;20041;-65
2021/12/03 09:44:21;;;;;;;8.02;1.50;;;;;;;-149.78;100.00;50459.72;5031427;28;20483;-65
2021/12/03 09:46:48;;;;;;;12.57;1.90;;;;;;;-149.78;100.00;50479.28;5031835;28;20037;-65
2021/12/03 09:49:25;;;;;;;7.38;1.65;;;;;;;-149.78;100.00;50475.34;5048742;28;20044;-65
2021/12/03 09:56:45;;;;;;;7.47;1.75;;;;;;;-149.78;100.00;50475.34;5025097;28;20106;-65
2021/12/03 09:59:39;;;;;;;5.82;1.85;;;;;;;-149.78;100.00;50491.00;5027268;28;20040;-65
2021/12/03 10:15:22;;;;;;;5.97;1.83;;;;;;;-149.78;100.00;50491.00;5027190;28;20037;-65
2021/12/03 10:17:54;;;;;;;9.77;1.83;;;;;;;-149.78;100.00;50463.63;5029706;28;20452;-65
2021/12/03 10:42:11;;;;;;;6.88;1.77;;;;;;;-149.78;100.00;50432.31;5026018;28;20037;-64
2021/12/03 12:15:36;;;;;;;11.52;3.65;;;;;;;-149.78;100.00;50475.34;5027154;28;20037;-65
2021/12/03 13:34:46;;;;;;;16.10;2.45;;;;;;;-149.78;100.00;50447.97;4971423;28;20174;-64
2021/12/03 14:06:18;;;;;;;10.55;1.65;;;;;;;-149.78;100.00;50424.50;5027221;28;20038;-67
2021/12/03 14:09:12;;;;;;;7.63;2.13;;;;;;;-149.78;100.00;50489.03;5027182;28;20036;-67
2021/12/03 14:39:26;;;;;;;13.10;2.97;;;;;;;-149.78;100.00;50475.34;5030503;28;20025;-63
2021/12/03 14:53:19;;;;;;;6.60;1.95;;;;;;;-149.78;100.00;50479.28;5000476;28;20037;-64
2021/12/03 14:55:48;;;;;;;12.13;2.47;;;;;;;-149.78;100.00;50438.19;5030727;28;20033;-64
2021/12/03 14:58:32;;;;;;;12.02;1.98;;;;;;;-149.78;100.00;50475.34;5031942;28;20128;-64
2021/12/03 15:01:06;;;;;;;11.27;2.00;;;;;;;-149.78;100.00;50485.13;5026475;28;20025;-64
2021/12/03 15:08:36;;;;;;;13.63;2.30;;;;;;;-149.78;100.00;50479.28;5030438;28;20175;-64
2021/12/03 15:23:41;;;;;;;12.98;2.38;;;;;;;-149.78;100.00;50463.63;5026302;28;20136;-63
2021/12/03 15:26:18;;;;;;;13.30;2.42;;;;;;;-149.78;100.00;50467.53;5024810;28;20376;-64
2021/12/03 15:40:09;;;;;;;5.70;1.60;;;;;;;-149.78;100.00;50438.19;5029727;28;20540;-64
2021/12/03 15:56:19;;;;;;;7.05;1.92;;;;;;;-149.78;100.00;50447.97;5032204;28;20040;-65
2021/12/03 16:10:13;;;;;;;10.88;3.75;;;;;;;-149.78;100.00;50428.41;5025928;28;20041;-63
2021/12/03 16:53:01;;;;;;;10.25;3.40;;;;;;;-149.78;100.00;50467.53;5026593;28;20107;-64
2021/12/03 16:55:27;;;;;;;12.55;4.15;;;;;;;-149.78;100.00;50473.41;5027924;28;20041;-63
2021/12/03 16:57:54;;;;;;;12.40;5.15;;;;;;;-149.78;100.00;50473.41;5031322;28;20663;-64
2021/12/03 17:00:29;;;;;;;15.15;3.95;;;;;;;-149.78;100.00;50471.44;5027190;28;20120;-64
2021/12/03 17:03:20;;;;;;;19.10;4.35;;;;;;;-149.78;100.00;50455.81;5018247;28;20088;-62
2021/12/03 17:53:41;;;;;;;27.52;9.02;;;;;;;-149.78;100.00;50459.72;5027536;28;21575;-64
2021/12/03 17:56:29;;;;;;;25.30;8.30;;;;;;;-149.78;100.00;50473.41;5027530;28;20033;-65
2021/12/03 17:59:09;;;;;;;22.17;6.65;;;;;;;-149.78;100.00;50471.44;5026915;28;20042;-65
2021/12/03 18:01:48;;;;;;;19.17;5.97;;;;;;;-149.78;100.00;50537.94;5022220;28;20050;-65
2021/12/03 18:04:37;;;;;;;21.50;7.03;;;;;;;-149.78;100.00;50471.44;5028862;28;20048;-65
2021/12/03 18:15:14;;;;;;;30.38;8.73;;;;;;;-149.78;100.00;50475.34;5027083;28;20377;-65
2021/12/03 18:55:15;;;;;;;22.33;8.27;;;;;;;-149.78;100.00;50491.00;5028922;28;19921;-67
2021/12/03 18:57:45;;;;;;;23.55;8.60;;;;;;;-149.78;100.00;50496.88;5027964;28;20029;-64
2021/12/03 19:00:15;;;;;;;31.40;11.02;;;;;;;-149.78;100.00;50463.63;5028535;28;20048;-66
2021/12/03 19:02:47;;;;;;;34.33;13.18;;;;;;;-149.78;100.00;50447.97;5029676;28;20037;-69